sensor_id;sensor_type;location;lat;lon;timestamp;pressure;altitude;pressure_sealevel;temperature;humidity
21433;BME280;18592;49.708;10.900;2023-03-25T00:00:41;97855.09;;;13.77;51.94
21433;BME280;18592;49.708;10.900;2023-03-25T00:02:46;97856.22;;;13.76;51.89
21433;BME280;18592;49.708;10.900;2023-03-25T00:04:50;97868.25;;;13.75;52.11
21433;BME280;18592;49.708;10.900;2023-03-25T00:06:58;97852.13;;;13.73;52.09
21433;BME280;18592;49.708;10.900;2023-03-25T00:09:00;97855.97;;;13.72;51.94
21433;BME280;18592;49.708;10.900;2023-03-25T00:11:03;97847.75;;;13.72;52.23
21433;BME280;18592;49.708;10.900;2023-03-25T00:13:05;97848.03;;;13.71;52.09
21433;BME280;18592;49.708;10.900;2023-03-25T00:15:09;97849.13;;;13.70;52.14
21433;BME280;18592;49.708;10.900;2023-03-25T00:17:12;97849.44;;;13.68;51.90
21433;BME280;18592;49.708;10.900;2023-03-25T00:19:14;97854.09;;;13.68;52.19
21433;BME280;18592;49.708;10.900;2023-03-25T00:21:18;97841.50;;;13.67;51.96
21433;BME280;18592;49.708;10.900;2023-03-25T00:23:21;97845.34;;;13.66;52.01
21433;BME280;18592;49.708;10.900;2023-03-25T00:25:22;97840.16;;;13.64;52.19
21433;BME280;18592;49.708;10.900;2023-03-25T00:27:24;97839.63;;;13.62;52.19
21433;BME280;18592;49.708;10.900;2023-03-25T00:29:26;97830.59;;;13.62;52.08
21433;BME280;18592;49.708;10.900;2023-03-25T00:31:29;97830.06;;;13.60;51.82
21433;BME280;18592;49.708;10.900;2023-03-25T00:33:30;97828.41;;;13.59;51.89
21433;BME280;18592;49.708;10.900;2023-03-25T00:35:33;97824.13;;;13.53;52.26
21433;BME280;18592;49.708;10.900;2023-03-25T00:37:36;97821.66;;;13.51;52.26
21433;BME280;18592;49.708;10.900;2023-03-25T00:39:37;97824.38;;;13.51;52.20
21433;BME280;18592;49.708;10.900;2023-03-25T00:41:39;97813.44;;;13.51;52.13
21433;BME280;18592;49.708;10.900;2023-03-25T00:43:43;97816.16;;;13.51;52.02
21433;BME280;18592;49.708;10.900;2023-03-25T00:45:45;97824.69;;;13.50;52.20
21433;BME280;18592;49.708;10.900;2023-03-25T00:47:47;97819.22;;;13.50;52.15
21433;BME280;18592;49.708;10.900;2023-03-25T00:49:49;97812.91;;;13.49;52.09
21433;BME280;18592;49.708;10.900;2023-03-25T00:51:51;97823.03;;;13.49;52.11
21433;BME280;18592;49.708;10.900;2023-03-25T00:53:57;97827.72;;;13.48;52.22
21433;BME280;18592;49.708;10.900;2023-03-25T00:56:04;97844.94;;;13.49;52.31
21433;BME280;18592;49.708;10.900;2023-03-25T00:58:05;97851.53;;;13.48;52.30
21433;BME280;18592;49.708;10.900;2023-03-25T01:00:10;97858.09;;;13.47;52.22
21433;BME280;18592;49.708;10.900;2023-03-25T01:02:12;97855.66;;;13.45;52.37
21433;BME280;18592;49.708;10.900;2023-03-25T01:04:16;97831.28;;;13.44;52.53
21433;BME280;18592;49.708;10.900;2023-03-25T01:06:19;97806.97;;;13.42;52.42
21433;BME280;18592;49.708;10.900;2023-03-25T01:08:22;97817.91;;;13.42;52.65
21433;BME280;18592;49.708;10.900;2023-03-25T01:10:26;97816.25;;;13.41;52.71
21433;BME280;18592;49.708;10.900;2023-03-25T01:12:27;97814.66;;;13.40;52.67
21433;BME280;18592;49.708;10.900;2023-03-25T01:14:29;97825.59;;;13.40;52.91
21433;BME280;18592;49.708;10.900;2023-03-25T01:16:31;97808.34;;;13.40;52.76
21433;BME280;18592;49.708;10.900;2023-03-25T01:18:33;97797.41;;;13.40;52.80
21433;BME280;18592;49.708;10.900;2023-03-25T01:20:39;97805.09;;;13.38;52.84
21433;BME280;18592;49.708;10.900;2023-03-25T01:22:40;97799.63;;;13.38;52.89
21433;BME280;18592;49.708;10.900;2023-03-25T01:24:42;97801.22;;;13.38;52.70
21433;BME280;18592;49.708;10.900;2023-03-25T01:26:44;97801.22;;;13.38;52.74
21433;BME280;18592;49.708;10.900;2023-03-25T01:28:46;97789.50;;;13.38;52.70
21433;BME280;18592;49.708;10.900;2023-03-25T01:30:48;97787.03;;;13.36;52.86
21433;BME280;18592;49.708;10.900;2023-03-25T01:32:49;97785.41;;;13.35;52.87
21433;BME280;18592;49.708;10.900;2023-03-25T01:34:51;97790.31;;;13.33;52.89
21433;BME280;18592;49.708;10.900;2023-03-25T01:36:53;97784.84;;;13.33;53.10
21433;BME280;18592;49.708;10.900;2023-03-25T01:38:57;97785.69;;;13.34;52.78
21433;BME280;18592;49.708;10.900;2023-03-25T01:40:59;97779.69;;;13.32;52.97
21433;BME280;18592;49.708;10.900;2023-03-25T01:43:01;97772.28;;;13.32;52.96
21433;BME280;18592;49.708;10.900;2023-03-25T01:45:17;97779.69;;;13.32;53.13
21433;BME280;18592;49.708;10.900;2023-03-25T01:47:20;97771.75;;;13.30;52.94
21433;BME280;18592;49.708;10.900;2023-03-25T01:49:26;97771.75;;;13.30;53.08
21433;BME280;18592;49.708;10.900;2023-03-25T01:51:34;97776.69;;;13.28;53.14
21433;BME280;18592;49.708;10.900;2023-03-25T01:53:37;97774.50;;;13.30;53.26
21433;BME280;18592;49.708;10.900;2023-03-25T01:55:39;97765.75;;;13.28;53.40
21433;BME280;18592;49.708;10.900;2023-03-25T01:57:48;97773.16;;;13.28;53.10
21433;BME280;18592;49.708;10.900;2023-03-25T01:59:55;97772.34;;;13.27;53.16
21433;BME280;18592;49.708;10.900;2023-03-25T02:02:02;97770.69;;;13.26;53.31
21433;BME280;18592;49.708;10.900;2023-03-25T02:04:04;97772.91;;;13.24;53.43
21433;BME280;18592;49.708;10.900;2023-03-25T02:06:26;97766.09;;;13.22;53.51
21433;BME280;18592;49.708;10.900;2023-03-25T02:08:34;97763.91;;;13.19;53.33
21433;BME280;18592;49.708;10.900;2023-03-25T02:10:39;97768.56;;;13.18;53.43
21433;BME280;18592;49.708;10.900;2023-03-25T02:12:45;97766.13;;;13.17;53.41
21433;BME280;18592;49.708;10.900;2023-03-25T02:14:47;97772.44;;;13.17;53.30
21433;BME280;18592;49.708;10.900;2023-03-25T02:17:02;97761.47;;;13.17;53.20
21433;BME280;18592;49.708;10.900;2023-03-25T02:27:00;97774.69;;;13.10;53.37
21433;BME280;18592;49.708;10.900;2023-03-25T02:32:03;97781.25;;;13.09;53.33
21433;BME280;18592;49.708;10.900;2023-03-25T02:39:11;97801.22;;;13.05;53.44
21433;BME280;18592;49.708;10.900;2023-03-25T02:41:22;97794.94;;;13.04;53.19
21433;BME280;18592;49.708;10.900;2023-03-25T02:43:33;97780.94;;;13.06;53.21
21433;BME280;18592;49.708;10.900;2023-03-25T02:45:43;97781.25;;;13.04;53.33
21433;BME280;18592;49.708;10.900;2023-03-25T02:47:51;97779.34;;;13.05;53.25
21433;BME280;18592;49.708;10.900;2023-03-25T02:49:58;97782.34;;;13.03;53.26
21433;BME280;18592;49.708;10.900;2023-03-25T02:52:11;97791.94;;;13.01;53.45
21433;BME280;18592;49.708;10.900;2023-03-25T02:54:15;97792.75;;;13.01;53.33
21433;BME280;18592;49.708;10.900;2023-03-25T02:56:21;97791.66;;;13.02;53.31
21433;BME280;18592;49.708;10.900;2023-03-25T02:58:27;97787.28;;;13.01;53.42
21433;BME280;18592;49.708;10.900;2023-03-25T03:00:33;97772.78;;;13.01;53.24
21433;BME280;18592;49.708;10.900;2023-03-25T03:02:38;97779.66;;;12.98;53.30
21433;BME280;18592;49.708;10.900;2023-03-25T03:04:49;97784.31;;;12.98;53.19
21433;BME280;18592;49.708;10.900;2023-03-25T03:06:53;97785.41;;;12.97;53.17
21433;BME280;18592;49.708;10.900;2023-03-25T03:11:29;97782.41;;;12.93;53.21
21433;BME280;18592;49.708;10.900;2023-03-25T03:16:04;97779.69;;;12.93;52.96
21433;BME280;18592;49.708;10.900;2023-03-25T03:18:17;97781.91;;;12.91;53.21
21433;BME280;18592;49.708;10.900;2023-03-25T03:23:13;97783.56;;;12.87;53.03
21433;BME280;18592;49.708;10.900;2023-03-25T03:25:44;97792.88;;;12.86;53.44
21433;BME280;18592;49.708;10.900;2023-03-25T03:28:03;97781.94;;;12.86;53.06
21433;BME280;18592;49.708;10.900;2023-03-25T03:30:17;97784.16;;;12.84;53.29
21433;BME280;18592;49.708;10.900;2023-03-25T03:32:29;97788.50;;;12.85;53.09
21433;BME280;18592;49.708;10.900;2023-03-25T03:34:38;97789.59;;;12.84;53.10
21433;BME280;18592;49.708;10.900;2023-03-25T03:36:47;97795.09;;;12.84;52.99
21433;BME280;18592;49.708;10.900;2023-03-25T03:39:14;97791.22;;;12.85;53.06
21433;BME280;18592;49.708;10.900;2023-03-25T03:41:22;97797.00;;;12.84;53.17
21433;BME280;18592;49.708;10.900;2023-03-25T03:44:15;97788.78;;;12.84;53.38
21433;BME280;18592;49.708;10.900;2023-03-25T03:46:04;97793.44;;;12.83;53.37
21433;BME280;18592;49.708;10.900;2023-03-25T03:48:24;97797.28;;;12.82;53.40
21433;BME280;18592;49.708;10.900;2023-03-25T03:50:30;97797.00;;;12.84;53.31
21433;BME280;18592;49.708;10.900;2023-03-25T03:52:42;97793.16;;;12.85;53.26
21433;BME280;18592;49.708;10.900;2023-03-25T03:55:04;97799.72;;;12.84;53.45
21433;BME280;18592;49.708;10.900;2023-03-25T03:57:35;97792.34;;;12.84;53.45
21433;BME280;18592;49.708;10.900;2023-03-25T03:59:55;97791.81;;;12.82;53.32
21433;BME280;18592;49.708;10.900;2023-03-25T04:02:01;97790.69;;;12.83;53.41
21433;BME280;18592;49.708;10.900;2023-03-25T04:04:09;97789.88;;;12.83;53.36
21433;BME280;18592;49.708;10.900;2023-03-25T04:06:21;97785.22;;;12.83;53.31
21433;BME280;18592;49.708;10.900;2023-03-25T04:08:36;97782.50;;;12.83;53.51
21433;BME280;18592;49.708;10.900;2023-03-25T04:10:53;97789.09;;;12.82;53.49
21433;BME280;18592;49.708;10.900;2023-03-25T04:13:02;97779.22;;;12.81;53.40
21433;BME280;18592;49.708;10.900;2023-03-25T04:15:07;97778.41;;;12.81;53.30
21433;BME280;18592;49.708;10.900;2023-03-25T04:17:12;97793.22;;;12.80;53.37
21433;BME280;18592;49.708;10.900;2023-03-25T04:19:14;97781.44;;;12.79;53.29
21433;BME280;18592;49.708;10.900;2023-03-25T04:21:22;97791.25;;;12.80;53.39
21433;BME280;18592;49.708;10.900;2023-03-25T04:23:23;97780.63;;;12.79;53.14
21433;BME280;18592;49.708;10.900;2023-03-25T04:25:25;97789.91;;;12.77;53.21
21433;BME280;18592;49.708;10.900;2023-03-25T04:27:27;97788.28;;;12.77;53.11
21433;BME280;18592;49.708;10.900;2023-03-25T04:29:30;97794.03;;;12.75;53.06
21433;BME280;18592;49.708;10.900;2023-03-25T04:31:32;97795.16;;;12.74;53.07
21433;BME280;18592;49.708;10.900;2023-03-25T04:33:34;97804.44;;;12.73;53.08
21433;BME280;18592;49.708;10.900;2023-03-25T04:35:36;97813.47;;;12.73;52.83
21433;BME280;18592;49.708;10.900;2023-03-25T04:37:39;97818.63;;;12.75;52.84
21433;BME280;18592;49.708;10.900;2023-03-25T04:39:42;97817.84;;;12.74;52.89
21433;BME280;18592;49.708;10.900;2023-03-25T04:41:47;97825.50;;;12.72;52.85
21433;BME280;18592;49.708;10.900;2023-03-25T04:43:48;97825.50;;;12.72;52.80
21433;BME280;18592;49.708;10.900;2023-03-25T04:45:50;97820.03;;;12.72;52.71
21433;BME280;18592;49.708;10.900;2023-03-25T04:47:55;97830.44;;;12.70;52.84
21433;BME280;18592;49.708;10.900;2023-03-25T04:49:58;97815.94;;;12.70;52.78
21433;BME280;18592;49.708;10.900;2023-03-25T04:52:00;97817.88;;;12.69;52.73
21433;BME280;18592;49.708;10.900;2023-03-25T04:54:06;97829.63;;;12.70;52.70
21433;BME280;18592;49.708;10.900;2023-03-25T04:56:12;97826.34;;;12.68;52.69
21433;BME280;18592;49.708;10.900;2023-03-25T04:58:17;97831.28;;;12.66;52.60
21433;BME280;18592;49.708;10.900;2023-03-25T05:00:21;97832.94;;;12.67;52.71
21433;BME280;18592;49.708;10.900;2023-03-25T05:02:23;97846.59;;;12.67;52.71
21433;BME280;18592;49.708;10.900;2023-03-25T05:04:24;97836.75;;;12.66;52.64
21433;BME280;18592;49.708;10.900;2023-03-25T05:06:26;97841.66;;;12.69;52.59
21433;BME280;18592;49.708;10.900;2023-03-25T05:08:28;97843.31;;;12.65;52.66
21433;BME280;18592;49.708;10.900;2023-03-25T05:10:33;97836.75;;;12.66;52.61
21433;BME280;18592;49.708;10.900;2023-03-25T05:12:36;97847.69;;;12.66;52.63
21433;BME280;18592;49.708;10.900;2023-03-25T05:14:37;97844.66;;;12.67;52.71
21433;BME280;18592;49.708;10.900;2023-03-25T05:16:39;97844.97;;;12.66;52.52
21433;BME280;18592;49.708;10.900;2023-03-25T05:18:41;97844.97;;;12.66;52.59
21433;BME280;18592;49.708;10.900;2023-03-25T05:20:44;97845.25;;;12.64;52.55
21433;BME280;18592;49.708;10.900;2023-03-25T05:22:47;97851.50;;;12.65;52.52
21433;BME280;18592;49.708;10.900;2023-03-25T05:24:48;97855.38;;;12.64;52.04
21433;BME280;18592;49.708;10.900;2023-03-25T05:26:53;97863.03;;;12.62;52.56
21433;BME280;18592;49.708;10.900;2023-03-25T05:28:59;97866.84;;;12.61;52.79
21433;BME280;18592;49.708;10.900;2023-03-25T05:31:01;97864.13;;;12.61;52.63
21433;BME280;18592;49.708;10.900;2023-03-25T05:33:09;97872.31;;;12.61;52.48
21433;BME280;18592;49.708;10.900;2023-03-25T05:35:11;97876.72;;;12.62;52.46
21433;BME280;18592;49.708;10.900;2023-03-25T05:37:15;97879.44;;;12.62;52.61
21433;BME280;18592;49.708;10.900;2023-03-25T05:39:16;97884.91;;;12.62;52.52
21433;BME280;18592;49.708;10.900;2023-03-25T05:41:18;97876.72;;;12.62;52.43
21433;BME280;18592;49.708;10.900;2023-03-25T05:43:20;97894.19;;;12.61;52.32
21433;BME280;18592;49.708;10.900;2023-03-25T05:45:25;97890.38;;;12.62;52.44
21433;BME280;18592;49.708;10.900;2023-03-25T05:47:29;97896.94;;;12.61;52.44
21433;BME280;18592;49.708;10.900;2023-03-25T05:49:31;97890.63;;;12.60;52.46
21433;BME280;18592;49.708;10.900;2023-03-25T05:51:34;97896.41;;;12.59;52.08
21433;BME280;18592;49.708;10.900;2023-03-25T05:53:43;97899.66;;;12.61;52.59
21433;BME280;18592;49.708;10.900;2023-03-25T05:55:44;97900.50;;;12.61;52.38
21433;BME280;18592;49.708;10.900;2023-03-25T05:57:48;97901.31;;;12.62;52.33
21433;BME280;18592;49.708;10.900;2023-03-25T05:59:53;97908.41;;;12.63;52.33
21433;BME280;18592;49.708;10.900;2023-03-25T06:01:56;97904.03;;;12.62;52.34
21433;BME280;18592;49.708;10.900;2023-03-25T06:03:58;97903.47;;;12.60;52.51
21433;BME280;18592;49.708;10.900;2023-03-25T06:06:02;97900.50;;;12.61;52.38
21433;BME280;18592;49.708;10.900;2023-03-25T06:08:05;97897.75;;;12.61;52.43
21433;BME280;18592;49.708;10.900;2023-03-25T06:10:09;97899.66;;;12.61;52.35
21433;BME280;18592;49.708;10.900;2023-03-25T06:12:16;97907.88;;;12.61;52.37
21433;BME280;18592;49.708;10.900;2023-03-25T06:14:18;97897.75;;;12.61;52.31
21433;BME280;18592;49.708;10.900;2023-03-25T06:16:22;97886.00;;;12.61;52.38
21433;BME280;18592;49.708;10.900;2023-03-25T06:18:28;97884.91;;;12.62;52.35
21433;BME280;18592;49.708;10.900;2023-03-25T06:20:30;97888.72;;;12.61;52.22
21433;BME280;18592;49.708;10.900;2023-03-25T06:22:31;97895.03;;;12.61;52.38
21433;BME280;18592;49.708;10.900;2023-03-25T06:24:35;97894.72;;;12.63;52.37
21433;BME280;18592;49.708;10.900;2023-03-25T06:26:42;97892.81;;;12.63;52.37
21433;BME280;18592;49.708;10.900;2023-03-25T06:28:44;97899.66;;;12.66;52.35
21433;BME280;18592;49.708;10.900;2023-03-25T06:30:47;97889.78;;;12.65;52.27
21433;BME280;18592;49.708;10.900;2023-03-25T06:32:51;97896.91;;;12.66;52.32
21433;BME280;18592;49.708;10.900;2023-03-25T06:34:58;97901.28;;;12.67;52.28
21433;BME280;18592;49.708;10.900;2023-03-25T06:37:00;97900.69;;;12.70;52.26
21433;BME280;18592;49.708;10.900;2023-03-25T06:39:02;97905.38;;;12.69;52.34
21433;BME280;18592;49.708;10.900;2023-03-25T06:41:06;97906.19;;;12.70;52.29
21433;BME280;18592;49.708;10.900;2023-03-25T06:43:07;97907.00;;;12.70;52.32
21433;BME280;18592;49.708;10.900;2023-03-25T06:45:38;97908.91;;;12.70;52.40
21433;BME280;18592;49.708;10.900;2023-03-25T06:47:53;97912.75;;;12.69;52.37
21433;BME280;18592;49.708;10.900;2023-03-25T06:49:57;97913.28;;;12.71;52.39
21433;BME280;18592;49.708;10.900;2023-03-25T06:51:59;97904.78;;;12.72;52.39
21433;BME280;18592;49.708;10.900;2023-03-25T06:54:00;97906.72;;;12.72;52.30
21433;BME280;18592;49.708;10.900;2023-03-25T06:56:02;97908.34;;;12.73;52.26
21433;BME280;18592;49.708;10.900;2023-03-25T06:58:04;97917.38;;;12.73;52.40
21433;BME280;18592;49.708;10.900;2023-03-25T07:00:06;97917.09;;;12.75;52.29
21433;BME280;18592;49.708;10.900;2023-03-25T07:02:14;97906.97;;;12.75;52.43
21433;BME280;18592;49.708;10.900;2023-03-25T07:04:16;97913.25;;;12.76;52.42
21433;BME280;18592;49.708;10.900;2023-03-25T07:06:23;97916.00;;;12.76;52.59
21433;BME280;18592;49.708;10.900;2023-03-25T07:08:25;97905.88;;;12.77;52.27
21433;BME280;18592;49.708;10.900;2023-03-25T07:10:26;97907.25;;;12.79;52.48
21433;BME280;18592;49.708;10.900;2023-03-25T07:12:28;97906.13;;;12.80;52.40
21433;BME280;18592;49.708;10.900;2023-03-25T07:14:33;97903.38;;;12.80;52.41
21433;BME280;18592;49.708;10.900;2023-03-25T07:16:34;97901.22;;;12.82;52.47
21433;BME280;18592;49.708;10.900;2023-03-25T07:18:42;97906.69;;;12.82;52.39
21433;BME280;18592;49.708;10.900;2023-03-25T07:20:45;97900.09;;;12.83;52.43
21433;BME280;18592;49.708;10.900;2023-03-25T07:22:47;97893.81;;;12.83;52.37
21433;BME280;18592;49.708;10.900;2023-03-25T07:24:49;97896.28;;;12.84;52.48
21433;BME280;18592;49.708;10.900;2023-03-25T07:26:52;97892.41;;;12.85;52.31
21433;BME280;18592;49.708;10.900;2023-03-25T07:28:59;97897.91;;;12.85;52.53
21433;BME280;18592;49.708;10.900;2023-03-25T07:31:00;97906.09;;;12.85;52.53
21433;BME280;18592;49.708;10.900;2023-03-25T07:33:02;97910.19;;;12.88;52.46
21433;BME280;18592;49.708;10.900;2023-03-25T07:35:04;97912.09;;;12.92;52.57
21433;BME280;18592;49.708;10.900;2023-03-25T07:37:06;97913.72;;;12.93;52.50
21433;BME280;18592;49.708;10.900;2023-03-25T07:39:11;97906.06;;;12.95;52.57
21433;BME280;18592;49.708;10.900;2023-03-25T07:41:13;97901.13;;;12.97;52.69
21433;BME280;18592;49.708;10.900;2023-03-25T07:43:38;97903.31;;;13.00;52.68
21433;BME280;18592;49.708;10.900;2023-03-25T07:45:59;97903.53;;;13.04;52.76
21433;BME280;18592;49.708;10.900;2023-03-25T07:48:04;97909.31;;;13.07;52.71
21433;BME280;18592;49.708;10.900;2023-03-25T07:50:06;97907.38;;;13.13;52.71
21433;BME280;18592;49.708;10.900;2023-03-25T07:52:08;97915.53;;;13.18;52.80
21433;BME280;18592;49.708;10.900;2023-03-25T07:54:10;97917.44;;;13.22;52.75
21433;BME280;18592;49.708;10.900;2023-03-25T07:56:12;97920.13;;;13.27;52.54
21433;BME280;18592;49.708;10.900;2023-03-25T07:58:14;97914.63;;;13.32;52.49
21433;BME280;18592;49.708;10.900;2023-03-25T08:00:15;97925.28;;;13.34;52.48
21433;BME280;18592;49.708;10.900;2023-03-25T08:02:17;97920.06;;;13.38;52.58
21433;BME280;18592;49.708;10.900;2023-03-25T08:04:19;97922.50;;;13.39;52.62
21433;BME280;18592;49.708;10.900;2023-03-25T08:06:22;97924.97;;;13.41;52.46
21433;BME280;18592;49.708;10.900;2023-03-25T08:08:24;97926.03;;;13.45;52.54
21433;BME280;18592;49.708;10.900;2023-03-25T08:10:26;97934.75;;;13.47;52.55
21433;BME280;18592;49.708;10.900;2023-03-25T08:12:31;97926.00;;;13.50;52.33
21433;BME280;18592;49.708;10.900;2023-03-25T08:14:32;97917.22;;;13.53;52.36
21433;BME280;18592;49.708;10.900;2023-03-25T08:16:34;97919.66;;;13.54;52.61
21433;BME280;18592;49.708;10.900;2023-03-25T08:18:38;97927.81;;;13.59;52.16
21433;BME280;18592;49.708;10.900;2023-03-25T08:20:51;97916.31;;;13.62;52.21
21433;BME280;18592;49.708;10.900;2023-03-25T08:22:58;97918.19;;;13.67;52.33
21433;BME280;18592;49.708;10.900;2023-03-25T08:25:00;97919.25;;;13.71;52.63
21433;BME280;18592;49.708;10.900;2023-03-25T08:27:01;97912.91;;;13.75;52.35
21433;BME280;18592;49.708;10.900;2023-03-25T08:29:17;97918.03;;;13.82;52.16
21433;BME280;18592;49.708;10.900;2023-03-25T08:31:20;97913.03;;;13.89;52.54
21433;BME280;18592;49.708;10.900;2023-03-25T08:33:24;97918.44;;;13.99;52.95
21433;BME280;18592;49.708;10.900;2023-03-25T08:35:36;97924.63;;;14.10;52.96
21433;BME280;18592;49.708;10.900;2023-03-25T08:37:38;97918.25;;;14.19;53.06
21433;BME280;18592;49.708;10.900;2023-03-25T08:39:40;97920.06;;;14.29;52.39
21433;BME280;18592;49.708;10.900;2023-03-25T08:41:43;97914.78;;;14.37;52.16
21433;BME280;18592;49.708;10.900;2023-03-25T08:43:46;97914.44;;;14.44;52.33
21433;BME280;18592;49.708;10.900;2023-03-25T08:45:47;97907.25;;;14.48;52.37
21433;BME280;18592;49.708;10.900;2023-03-25T08:47:49;97903.63;;;14.52;52.00
21433;BME280;18592;49.708;10.900;2023-03-25T08:49:51;97913.44;;;14.58;52.02
21433;BME280;18592;49.708;10.900;2023-03-25T08:51:53;97910.34;;;14.65;52.17
21433;BME280;18592;49.708;10.900;2023-03-25T08:53:54;97897.63;;;14.74;52.12
21433;BME280;18592;49.708;10.900;2023-03-25T08:55:57;97902.97;;;14.84;52.20
21433;BME280;18592;49.708;10.900;2023-03-25T08:58:03;97900.31;;;14.98;52.20
21433;BME280;18592;49.708;10.900;2023-03-25T09:00:05;97899.31;;;15.12;52.32
21433;BME280;18592;49.708;10.900;2023-03-25T09:02:16;97907.00;;;15.29;52.54
21433;BME280;18592;49.708;10.900;2023-03-25T09:04:18;97902.09;;;15.45;52.59
21433;BME280;18592;49.708;10.900;2023-03-25T09:06:20;97910.66;;;15.62;52.75
21433;BME280;18592;49.708;10.900;2023-03-25T09:08:24;97904.31;;;15.80;52.17
21433;BME280;18592;49.708;10.900;2023-03-25T09:10:26;97904.56;;;15.97;51.94
21433;BME280;18592;49.708;10.900;2023-03-25T09:12:27;97900.72;;;16.12;51.78
21433;BME280;18592;49.708;10.900;2023-03-25T09:14:29;97901.56;;;16.26;51.52
21433;BME280;18592;49.708;10.900;2023-03-25T09:16:33;97899.13;;;16.38;51.03
21433;BME280;18592;49.708;10.900;2023-03-25T09:18:35;97902.78;;;16.47;50.85
21433;BME280;18592;49.708;10.900;2023-03-25T09:20:37;97892.75;;;16.56;50.66
21433;BME280;18592;49.708;10.900;2023-03-25T09:22:39;97894.81;;;16.64;50.45
21433;BME280;18592;49.708;10.900;2023-03-25T09:24:41;97897.44;;;16.69;50.45
21433;BME280;18592;49.708;10.900;2023-03-25T09:26:43;97892.63;;;16.75;50.20
21433;BME280;18592;49.708;10.900;2023-03-25T09:28:44;97881.53;;;16.80;50.00
21433;BME280;18592;49.708;10.900;2023-03-25T09:30:46;97892.44;;;16.85;49.84
21433;BME280;18592;49.708;10.900;2023-03-25T09:32:48;97897.03;;;16.89;49.53
21433;BME280;18592;49.708;10.900;2023-03-25T09:34:50;97900.47;;;16.95;49.61
21433;BME280;18592;49.708;10.900;2023-03-25T09:36:55;97900.88;;;17.02;49.49
21433;BME280;18592;49.708;10.900;2023-03-25T09:38:57;97899.34;;;17.09;49.52
21433;BME280;18592;49.708;10.900;2023-03-25T09:41:03;97906.34;;;17.15;49.49
21433;BME280;18592;49.708;10.900;2023-03-25T09:43:33;97897.97;;;17.21;49.06
21433;BME280;18592;49.708;10.900;2023-03-25T09:45:47;97900.59;;;17.26;48.45
21433;BME280;18592;49.708;10.900;2023-03-25T09:48:03;97891.72;;;17.29;48.70
21433;BME280;18592;49.708;10.900;2023-03-25T09:50:11;97900.06;;;17.37;48.82
21433;BME280;18592;49.708;10.900;2023-03-25T09:52:22;97902.88;;;17.46;48.64
21433;BME280;18592;49.708;10.900;2023-03-25T09:54:28;97900.00;;;17.51;48.53
21433;BME280;18592;49.708;10.900;2023-03-25T09:56:36;97902.19;;;17.54;48.20
21433;BME280;18592;49.708;10.900;2023-03-25T09:58:51;97904.81;;;17.59;48.12
21433;BME280;18592;49.708;10.900;2023-03-25T10:01:00;97898.69;;;17.62;47.98
21433;BME280;18592;49.708;10.900;2023-03-25T10:03:13;97907.44;;;17.64;47.87
21433;BME280;18592;49.708;10.900;2023-03-25T10:07:48;97894.00;;;17.62;47.39
21433;BME280;18592;49.708;10.900;2023-03-25T10:10:13;97895.44;;;17.60;47.15
21433;BME280;18592;49.708;10.900;2023-03-25T10:12:31;97878.91;;;17.60;47.14
21433;BME280;18592;49.708;10.900;2023-03-25T10:14:51;97889.91;;;17.60;47.37
21433;BME280;18592;49.708;10.900;2023-03-25T10:19:41;97884.31;;;17.73;47.78
21433;BME280;18592;49.708;10.900;2023-03-25T10:22:08;97873.88;;;17.84;48.28
21433;BME280;18592;49.708;10.900;2023-03-25T10:28:37;97858.84;;;18.21;47.58
21433;BME280;18592;49.708;10.900;2023-03-25T10:30:44;97859.19;;;18.28;47.55
21433;BME280;18592;49.708;10.900;2023-03-25T10:33:02;97848.50;;;18.35;47.49
21433;BME280;18592;49.708;10.900;2023-03-25T10:35:11;97832.81;;;18.44;47.07
21433;BME280;18592;49.708;10.900;2023-03-25T10:37:21;97825.72;;;18.52;47.26
21433;BME280;18592;49.708;10.900;2023-03-25T10:39:30;97829.31;;;18.61;47.45
21433;BME280;18592;49.708;10.900;2023-03-25T10:41:36;97825.13;;;18.72;47.75
21433;BME280;18592;49.708;10.900;2023-03-25T10:43:41;97827.72;;;18.85;47.28
21433;BME280;18592;49.708;10.900;2023-03-25T10:45:44;97831.19;;;18.99;47.11
21433;BME280;18592;49.708;10.900;2023-03-25T10:47:48;97840.94;;;19.14;47.17
21433;BME280;18592;49.708;10.900;2023-03-25T10:49:52;97835.56;;;19.26;46.96
21433;BME280;18592;49.708;10.900;2023-03-25T10:51:55;97835.44;;;19.40;47.05
21433;BME280;18592;49.708;10.900;2023-03-25T10:54:00;97850.72;;;19.54;46.72
21433;BME280;18592;49.708;10.900;2023-03-25T10:56:06;97821.91;;;19.64;46.61
21433;BME280;18592;49.708;10.900;2023-03-25T10:58:17;97817.69;;;19.75;45.52
21433;BME280;18592;49.708;10.900;2023-03-25T11:00:19;97816.84;;;19.83;45.62
21433;BME280;18592;49.708;10.900;2023-03-25T11:02:27;97808.03;;;19.90;45.53
21433;BME280;18592;49.708;10.900;2023-03-25T11:04:33;97799.56;;;19.95;45.64
21433;BME280;18592;49.708;10.900;2023-03-25T11:06:39;97809.16;;;19.97;45.49
21433;BME280;18592;49.708;10.900;2023-03-25T11:10:59;97860.91;;;19.97;44.54
21433;BME280;18592;49.708;10.900;2023-03-25T11:13:02;97867.09;;;19.94;44.34
21433;BME280;18592;49.708;10.900;2023-03-25T11:15:04;97872.31;;;19.87;43.97
21433;BME280;18592;49.708;10.900;2023-03-25T11:17:12;97874.59;;;19.76;43.94
21433;BME280;18592;49.708;10.900;2023-03-25T11:19:20;97854.28;;;19.63;43.75
21433;BME280;18592;49.708;10.900;2023-03-25T11:21:29;97858.53;;;19.52;43.82
21433;BME280;18592;49.708;10.900;2023-03-25T11:23:34;97849.28;;;19.40;44.01
21433;BME280;18592;49.708;10.900;2023-03-25T11:25:38;97849.06;;;19.28;44.06
21433;BME280;18592;49.708;10.900;2023-03-25T11:27:55;97857.66;;;19.18;44.41
21433;BME280;18592;49.708;10.900;2023-03-25T11:30:04;97855.88;;;19.05;44.33
21433;BME280;18592;49.708;10.900;2023-03-25T11:32:13;97836.03;;;18.94;44.20